Terminal Aerodrome Forecast
Issued by NWS

Home | Current Version | Previous Version | Graphics & Text | Print | Product List | Glossary On
Versions: 1 2 3 4 5 6 7 8 9 10 11 12 13 14 15 16
720
FTUS43 KMPX 221138
TAFRNH
TAF
KRNH 221138Z 2212/2312 18008KT P6SM FEW250
     FM221600 19012G20KT P6SM SCT100 SCT250
     FM221900 19017G25KT P6SM SCT080 SCT250
     FM230200 18011KT P6SM SKC=

USA.gov is the U.S. government's official web portal to all federal, state and local government web resources and services.